Terminal Aerodrome Forecast
Issued by NWS

Home | Current Version | Previous Version | Text Only | Print | Product List | Glossary On
Versions: 1 2 3 4 5 6 7 8 9 10 11 12 13 14 15
676
FTUS46 KMTR 252337
TAFMRY
TAF
KMRY 252337Z 2600/2624 29008KT P6SM BKN014
      TEMPO 2600/2601 FEW014
     FM260130 28008KT P6SM BKN010
     FM260300 25005KT P6SM OVC006
     FM260600 VRB03KT P6SM OVC004
      TEMPO 2613/2617 5SM BR OVC005
     FM261700 VRB03KT P6SM OVC008
     FM261900 26009KT P6SM OVC012
     FM262300 24013KT P6SM OVC015=

USA.gov is the U.S. government's official web portal to all federal, state and local government web resources and services.